createdAt,value
2018-10-18T00:02:09.880Z,22.41
2018-10-18T00:07:13.363Z,22.38
2018-10-18T00:12:16.697Z,22.36
2018-10-18T00:17:25.463Z,22.33
2018-10-18T00:22:28.756Z,22.36
2018-10-18T00:27:32.044Z,22.36
2018-10-18T00:32:35.334Z,22.32
2018-10-18T00:37:38.872Z,22.34
2018-10-18T00:42:42.493Z,22.28
2018-10-18T00:47:45.795Z,22.31
2018-10-18T00:52:49.088Z,22.26
2018-10-18T00:57:52.370Z,22.30
2018-10-18T01:02:55.663Z,22.29
2018-10-18T01:07:58.957Z,22.29
2018-10-18T01:13:02.249Z,22.29
2018-10-18T01:18:06.333Z,22.26
2018-10-18T01:23:09.897Z,22.26
2018-10-18T01:28:13.180Z,22.25
2018-10-18T01:33:16.504Z,22.24
2018-10-18T01:38:19.812Z,22.23
2018-10-18T01:43:23.189Z,22.25
2018-10-18T01:48:26.493Z,22.26
2018-10-18T01:53:30.064Z,22.21
2018-10-18T01:58:33.351Z,22.21
2018-10-18T02:03:36.635Z,22.21
2018-10-18T02:08:39.941Z,22.19
2018-10-18T02:13:43.379Z,22.18
2018-10-18T02:18:46.631Z,22.19
2018-10-18T02:23:49.932Z,22.19
2018-10-18T02:28:53.260Z,22.16
2018-10-18T02:33:56.551Z,22.17
2018-10-18T02:38:59.835Z,22.16
2018-10-18T02:44:03.163Z,22.17
2018-10-18T02:49:06.515Z,22.14
2018-10-18T02:54:09.879Z,22.14
2018-10-18T02:59:13.089Z,22.14
2018-10-18T03:04:16.351Z,22.14
2018-10-18T03:09:19.637Z,22.11
2018-10-18T03:14:22.891Z,22.11
2018-10-18T03:19:26.363Z,22.12
2018-10-18T03:24:29.652Z,22.09
2018-10-18T03:29:32.999Z,22.07
2018-10-18T03:34:36.312Z,22.09
2018-10-18T03:39:39.580Z,22.09
2018-10-18T03:44:42.871Z,22.07
2018-10-18T03:49:46.153Z,22.07
2018-10-18T03:54:49.418Z,22.09
2018-10-18T03:59:52.772Z,22.06
2018-10-18T04:04:56.056Z,22.09
2018-10-18T04:09:59.383Z,22.08
2018-10-18T04:15:03.266Z,22.08
2018-10-18T04:20:07.128Z,22.05
2018-10-18T04:25:10.393Z,22.04
2018-10-18T04:30:13.810Z,22.01
2018-10-18T04:35:16.935Z,22.03
2018-10-18T04:40:20.191Z,22.01
2018-10-18T04:45:23.491Z,21.98
2018-10-18T04:50:26.763Z,21.91
2018-10-18T04:55:30.099Z,21.99
2018-10-18T05:00:33.369Z,21.98
2018-10-18T05:05:57.392Z,21.93
2018-10-18T05:11:00.643Z,21.97
2018-10-18T05:16:04.882Z,21.91
2018-10-18T05:21:08.151Z,21.92
2018-10-18T05:26:11.432Z,21.88
2018-10-18T05:31:14.820Z,21.85
2018-10-18T05:36:17.983Z,21.75
2018-10-18T05:41:21.251Z,21.67
2018-10-18T05:46:24.546Z,21.57
2018-10-18T05:51:27.819Z,21.66
2018-10-18T05:56:31.093Z,21.59
2018-10-18T06:01:34.383Z,21.50
2018-10-18T06:06:37.655Z,21.52
2018-10-18T06:11:40.911Z,21.52
2018-10-18T06:16:44.224Z,21.51
2018-10-18T06:21:47.492Z,21.49
2018-10-18T06:26:50.775Z,21.47
2018-10-18T06:31:54.049Z,21.46
2018-10-18T06:36:57.344Z,21.42
2018-10-18T06:42:00.608Z,21.39
2018-10-18T06:47:04.036Z,21.31
2018-10-18T06:52:07.251Z,21.28
2018-10-18T06:57:10.541Z,21.24
2018-10-18T07:02:13.823Z,21.21
2018-10-18T07:07:17.102Z,21.19
2018-10-18T07:12:20.377Z,21.25
2018-10-18T07:17:23.653Z,21.29
2018-10-18T07:22:26.939Z,21.30
2018-10-18T07:27:30.223Z,21.26
2018-10-18T07:32:33.490Z,21.24
2018-10-18T07:37:36.800Z,21.33
2018-10-18T07:42:40.213Z,21.32
2018-10-18T07:47:44.136Z,21.34
2018-10-18T07:52:47.426Z,21.40
2018-10-18T07:57:50.704Z,21.49
2018-10-18T08:02:53.986Z,21.44
2018-10-18T08:07:57.251Z,20.60
2018-10-18T08:13:00.593Z,20.19
2018-10-18T08:18:03.823Z,19.86
2018-10-18T08:23:07.092Z,20.60
2018-10-18T08:28:10.376Z,20.90
2018-10-18T08:33:13.670Z,21.01
2018-10-18T08:38:17.450Z,21.08
2018-10-18T08:43:21.567Z,21.14
2018-10-18T08:48:24.841Z,21.19
2018-10-18T08:53:28.112Z,21.24
2018-10-18T08:58:31.378Z,21.29
2018-10-18T09:03:34.655Z,21.27
2018-10-18T09:08:37.923Z,21.33
2018-10-18T09:13:41.279Z,21.34
2018-10-18T09:18:44.544Z,21.36
2018-10-18T09:23:48.274Z,21.36
2018-10-18T09:28:51.488Z,21.45
2018-10-18T09:33:54.823Z,21.45
2018-10-18T09:38:58.084Z,21.51
2018-10-18T09:44:04.494Z,21.49
2018-10-18T09:49:07.843Z,21.49
2018-10-18T09:54:11.055Z,21.50
2018-10-18T09:59:14.324Z,21.48
2018-10-18T10:04:17.595Z,21.51
2018-10-18T10:09:20.887Z,21.51
2018-10-18T10:14:24.169Z,21.54
2018-10-18T10:19:27.504Z,21.81
2018-10-18T10:24:30.822Z,21.87
2018-10-18T10:29:34.083Z,21.90
2018-10-18T10:34:37.351Z,21.93
2018-10-18T10:39:40.683Z,21.96
2018-10-18T10:44:43.996Z,22.00
2018-10-18T10:49:47.726Z,22.02
2018-10-18T10:54:51.004Z,22.02
2018-10-18T10:59:54.276Z,22.07
2018-10-18T11:04:57.557Z,22.05
2018-10-18T11:10:00.920Z,22.07
2018-10-18T11:15:04.393Z,22.10
2018-10-18T11:20:07.760Z,22.09
2018-10-18T11:25:11.105Z,22.08
2018-10-18T11:30:14.474Z,22.12
2018-10-18T11:35:17.686Z,22.14
2018-10-18T11:40:20.972Z,22.16
2018-10-18T11:45:24.283Z,22.17
2018-10-18T11:50:27.866Z,22.18
2018-10-18T11:55:31.191Z,22.18
2018-10-18T12:00:34.466Z,22.19
2018-10-18T12:05:37.746Z,22.19
2018-10-18T12:10:41.034Z,22.17
2018-10-18T12:15:44.417Z,22.16
2018-10-18T12:20:47.702Z,22.21
2018-10-18T12:25:50.976Z,22.23
2018-10-18T12:30:54.258Z,22.18
2018-10-18T12:35:57.537Z,22.22
2018-10-18T12:41:00.913Z,22.19
2018-10-18T12:46:04.148Z,22.21
2018-10-18T12:51:07.440Z,22.22
2018-10-18T12:56:10.798Z,22.22
2018-10-18T13:01:14.041Z,22.18
2018-10-18T13:06:17.349Z,22.22
2018-10-18T13:11:20.611Z,22.22
2018-10-18T13:16:23.918Z,22.18
2018-10-18T13:21:27.251Z,22.11
2018-10-18T13:26:30.525Z,22.16
2018-10-18T13:31:33.808Z,22.13
2018-10-18T13:36:37.093Z,22.13
2018-10-18T13:41:40.461Z,22.18
2018-10-18T13:46:43.783Z,22.14
2018-10-18T13:51:47.066Z,22.29
2018-10-18T13:56:50.355Z,22.43
2018-10-18T14:01:53.665Z,22.40
2018-10-18T14:06:56.970Z,22.42
2018-10-18T14:12:00.254Z,22.39
2018-10-18T14:17:03.656Z,22.39
2018-10-18T14:22:06.949Z,22.39
2018-10-18T14:27:10.404Z,22.41
2018-10-18T14:32:13.759Z,22.40
2018-10-18T14:37:17.093Z,22.51
2018-10-18T14:42:20.392Z,22.41
2018-10-18T14:47:24.111Z,22.46
2018-10-18T14:52:27.269Z,22.44
2018-10-18T14:57:30.603Z,22.48
2018-10-18T15:02:33.942Z,22.50
2018-10-18T15:07:38.213Z,22.51
2018-10-18T15:12:41.896Z,22.49
2018-10-18T15:17:45.157Z,22.50
2018-10-18T15:22:48.476Z,22.54
2018-10-18T15:27:51.929Z,22.51
2018-10-18T15:32:55.175Z,22.48
2018-10-18T15:37:58.512Z,22.50
2018-10-18T15:43:02.558Z,22.49
2018-10-18T15:48:05.910Z,22.49
2018-10-18T15:53:09.263Z,22.46
2018-10-18T15:58:12.680Z,22.41
2018-10-18T16:03:16.093Z,22.34
2018-10-18T16:08:19.334Z,22.39
2018-10-18T16:13:22.638Z,22.36
2018-10-18T16:18:25.986Z,22.40
2018-10-18T16:23:29.314Z,22.40
2018-10-18T16:28:32.627Z,22.42
2018-10-18T16:33:36.064Z,22.43
2018-10-18T16:38:39.353Z,22.32
2018-10-18T16:43:42.659Z,22.31
2018-10-18T16:48:45.976Z,22.40
2018-10-18T16:53:49.318Z,22.41
2018-10-18T16:58:52.930Z,22.44
2018-10-18T17:03:56.284Z,22.46
2018-10-18T17:08:59.577Z,22.44
2018-10-18T17:14:02.901Z,22.52
2018-10-18T17:19:06.680Z,22.46
2018-10-18T17:24:10.016Z,22.57
2018-10-18T17:29:13.309Z,22.60
2018-10-18T17:34:16.642Z,22.54
2018-10-18T17:39:19.913Z,22.56
2018-10-18T17:44:23.346Z,22.58
2018-10-18T17:49:26.729Z,22.58
2018-10-18T17:54:30.302Z,22.63
2018-10-18T17:59:33.790Z,22.60
2018-10-18T18:04:37.376Z,22.53
2018-10-18T18:09:40.725Z,22.52
2018-10-18T18:14:44.042Z,22.57
2018-10-18T18:19:47.348Z,22.49
2018-10-18T18:24:50.662Z,22.49
2018-10-18T18:29:53.995Z,22.50
2018-10-18T18:34:57.302Z,22.47
2018-10-18T18:40:00.635Z,22.44
2018-10-18T18:45:10.161Z,22.41
2018-10-18T18:50:13.320Z,22.39
2018-10-18T18:55:16.631Z,22.40
2018-10-18T19:00:20.206Z,22.41
2018-10-18T19:05:24.386Z,22.38
2018-10-18T19:10:27.756Z,22.36
2018-10-18T19:15:31.062Z,22.38
2018-10-18T19:20:34.509Z,22.34
2018-10-18T19:25:37.957Z,22.31
2018-10-18T19:30:41.465Z,22.32
2018-10-18T19:35:44.861Z,22.33
2018-10-18T19:40:48.316Z,22.34
2018-10-18T19:45:52.671Z,22.34
2018-10-18T19:50:55.957Z,22.40
2018-10-18T19:55:59.245Z,22.48
2018-10-18T20:01:02.540Z,22.50
2018-10-18T20:06:05.914Z,22.48
2018-10-18T20:11:09.211Z,22.50
2018-10-18T20:16:12.518Z,22.56
2018-10-18T20:26:18.478Z,22.62
2018-10-18T20:31:21.476Z,22.60
2018-10-18T20:36:24.828Z,22.64
2018-10-18T20:41:28.745Z,22.64
2018-10-18T20:46:32.044Z,22.68
2018-10-18T20:51:35.320Z,22.70
2018-10-18T20:56:38.601Z,22.72
2018-10-18T21:01:41.895Z,22.70
2018-10-18T21:06:45.412Z,22.70
2018-10-18T21:11:48.564Z,22.71
2018-10-18T21:16:52.148Z,22.62
2018-10-18T21:21:55.668Z,22.54
2018-10-18T21:26:58.952Z,22.48
2018-10-18T21:32:02.237Z,22.50
2018-10-18T21:37:05.608Z,22.53
2018-10-18T21:42:08.892Z,22.54
2018-10-18T21:47:12.542Z,22.47
2018-10-18T21:52:15.789Z,22.42
2018-10-18T21:57:19.097Z,22.45
2018-10-18T22:02:22.518Z,22.48
2018-10-18T22:07:26.118Z,22.48
2018-10-18T22:12:29.468Z,22.45
2018-10-18T22:17:32.781Z,22.45
2018-10-18T22:22:36.397Z,22.43
2018-10-18T22:27:39.770Z,22.45
2018-10-18T22:32:43.356Z,22.44
2018-10-18T22:37:46.900Z,22.45
2018-10-18T22:42:50.222Z,22.43
2018-10-18T22:47:53.557Z,22.42
2018-10-18T22:52:56.913Z,22.44
2018-10-18T22:58:00.243Z,22.41
2018-10-18T23:03:03.538Z,22.39
2018-10-18T23:08:06.846Z,22.35
2018-10-18T23:13:10.459Z,22.37
2018-10-18T23:18:13.744Z,22.42
2018-10-18T23:23:17.160Z,22.37
2018-10-18T23:28:20.348Z,22.37
2018-10-18T23:33:23.617Z,22.41
2018-10-18T23:38:27.208Z,22.40
2018-10-18T23:43:30.473Z,22.38
2018-10-18T23:48:33.759Z,22.38
2018-10-18T23:53:37.046Z,22.34
2018-10-18T23:58:40.360Z,22.36
